createdAt,value
2023-04-24T00:01:09.898Z,12.68
2023-04-24T00:03:37.467Z,9.25
2023-04-24T00:06:04.624Z,8.70
2023-04-24T00:08:31.402Z,9.70
2023-04-24T00:10:58.285Z,8.30
2023-04-24T00:13:25.194Z,9.30
2023-04-24T00:15:52.076Z,8.73
2023-04-24T00:18:18.895Z,7.78
2023-04-24T00:20:45.908Z,8.60
2023-04-24T00:23:12.893Z,10.02
2023-04-24T00:25:39.968Z,9.10
2023-04-24T00:28:06.943Z,8.02
2023-04-24T00:30:33.781Z,9.25
2023-04-24T00:33:00.741Z,7.35
2023-04-24T00:35:27.674Z,10.70
2023-04-24T00:37:54.474Z,10.73
2023-04-24T00:40:21.270Z,8.73
2023-04-24T00:42:48.019Z,7.90
2023-04-24T00:45:15.047Z,7.93
2023-04-24T00:47:43.344Z,7.43
2023-04-24T00:50:10.705Z,8.65
2023-04-24T00:52:38.267Z,7.53
2023-04-24T00:55:06.613Z,10.43
2023-04-24T00:57:33.695Z,7.03
2023-04-24T01:00:00.511Z,8.70
2023-04-24T01:02:27.540Z,6.47
2023-04-24T01:04:54.574Z,7.60
2023-04-24T01:07:22.340Z,9.23
2023-04-24T01:09:51.932Z,6.70
2023-04-24T01:12:19.780Z,7.68
2023-04-24T01:14:46.949Z,7.38
2023-04-24T01:17:13.944Z,7.32
2023-04-24T01:19:41.500Z,7.40
2023-04-24T01:22:13.881Z,8.07
2023-04-24T01:24:41.417Z,8.68
2023-04-24T01:27:09.842Z,6.10
2023-04-24T01:29:37.614Z,6.78
2023-04-24T01:32:05.948Z,7.25
2023-04-24T01:34:33.423Z,8.10
2023-04-24T01:37:00.432Z,6.32
2023-04-24T01:39:29.578Z,6.60
2023-04-24T01:41:57.326Z,6.10
2023-04-24T01:44:24.939Z,6.13
2023-04-24T01:46:52.107Z,8.80
2023-04-24T01:49:19.070Z,9.07
2023-04-24T01:51:46.161Z,7.75
2023-04-24T01:54:13.455Z,7.50
2023-04-24T01:56:43.886Z,8.88
2023-04-24T01:59:12.142Z,10.25
2023-04-24T02:01:39.865Z,10.63
2023-04-24T02:04:08.378Z,11.18
2023-04-24T02:06:35.521Z,10.15
2023-04-24T02:09:03.972Z,11.90
2023-04-24T02:11:31.016Z,9.65
2023-04-24T02:13:57.876Z,11.70
2023-04-24T02:16:24.995Z,13.00
2023-04-24T02:18:51.871Z,14.15
2023-04-24T02:21:18.712Z,13.35
2023-04-24T02:23:45.610Z,14.63
2023-04-24T02:26:12.501Z,16.08
2023-04-24T02:28:39.376Z,13.25
2023-04-24T02:31:07.402Z,17.73
2023-04-24T02:33:34.280Z,14.18
2023-04-24T02:36:01.241Z,12.10
2023-04-24T02:38:28.170Z,11.98
2023-04-24T02:40:55.146Z,12.85
2023-04-24T02:43:22.121Z,16.38
2023-04-24T02:45:49.111Z,15.30
2023-04-24T02:48:16.087Z,13.25
2023-04-24T02:50:42.819Z,15.30
2023-04-24T02:53:09.645Z,14.75
2023-04-24T02:55:37.273Z,14.88
2023-04-24T02:58:04.091Z,15.45
2023-04-24T03:00:31.215Z,15.90
2023-04-24T03:02:58.289Z,14.82
2023-04-24T03:05:25.424Z,19.52
2023-04-24T03:07:53.673Z,18.35
2023-04-24T03:10:20.730Z,16.52
2023-04-24T03:12:47.907Z,17.45
2023-04-24T03:15:14.664Z,18.90
2023-04-24T03:17:41.514Z,14.88
2023-04-24T03:20:09.493Z,16.75
2023-04-24T03:22:36.401Z,14.23
2023-04-24T03:25:04.826Z,13.70
2023-04-24T03:27:31.736Z,12.40
2023-04-24T03:29:58.663Z,15.13
2023-04-24T03:32:25.591Z,17.00
2023-04-24T03:34:52.519Z,16.75
2023-04-24T03:37:19.343Z,18.48
2023-04-24T03:39:46.252Z,16.02
2023-04-24T03:42:12.999Z,18.30
2023-04-24T03:44:39.864Z,20.60
2023-04-24T03:47:06.678Z,14.93
2023-04-24T03:49:33.487Z,15.65
2023-04-24T03:52:00.224Z,16.13
2023-04-24T03:54:27.108Z,17.08
2023-04-24T03:56:54.146Z,17.67
2023-04-24T03:59:22.934Z,17.15
2023-04-24T04:01:49.717Z,16.08
2023-04-24T04:04:16.618Z,16.38
2023-04-24T04:06:45.116Z,15.50
2023-04-24T04:09:11.963Z,14.25
2023-04-24T04:11:38.885Z,17.23
2023-04-24T04:14:06.339Z,15.80
2023-04-24T04:16:33.346Z,15.50
2023-04-24T04:19:00.385Z,18.33
2023-04-24T04:21:28.143Z,16.30
2023-04-24T04:23:55.129Z,16.17
2023-04-24T04:26:22.175Z,18.90
2023-04-24T04:28:50.035Z,18.55
2023-04-24T04:31:16.908Z,16.42
2023-04-24T04:33:43.837Z,17.13
2023-04-24T04:36:10.664Z,16.55
2023-04-24T04:38:38.130Z,18.17
2023-04-24T04:41:05.045Z,18.20
2023-04-24T04:43:32.038Z,20.23
2023-04-24T04:45:59.290Z,19.33
2023-04-24T04:48:26.114Z,18.80
2023-04-24T04:50:52.948Z,20.58
2023-04-24T04:53:19.702Z,7.95
2023-04-24T04:55:47.437Z,7.20
2023-04-24T04:58:14.250Z,4.47
2023-04-24T05:00:41.136Z,4.32
2023-04-24T05:03:19.804Z,3.15
2023-04-24T05:05:47.854Z,4.57
2023-04-24T05:08:25.909Z,5.18
2023-04-24T05:10:54.793Z,1.27
2023-04-24T05:13:35.532Z,2.97
2023-04-24T05:16:05.921Z,3.15
2023-04-24T05:18:33.561Z,2.67
2023-04-24T05:21:00.466Z,2.95
2023-04-24T05:23:27.352Z,2.75
2023-04-24T05:25:54.149Z,1.42
2023-04-24T05:28:21.955Z,0.50
2023-04-24T05:30:50.754Z,1.42
2023-04-24T05:33:17.596Z,1.67
2023-04-24T05:35:47.776Z,1.10
2023-04-24T05:38:15.371Z,1.63
2023-04-24T05:40:42.318Z,1.77
2023-04-24T05:43:09.074Z,2.78
2023-04-24T05:45:37.089Z,1.33
2023-04-24T05:48:05.025Z,1.77
2023-04-24T05:50:32.017Z,1.23
2023-04-24T05:53:03.122Z,1.38
2023-04-24T05:55:30.145Z,0.90
2023-04-24T05:57:57.123Z,5.70
2023-04-24T06:00:24.965Z,0.60
2023-04-24T06:02:52.974Z,1.27
2023-04-24T06:05:20.230Z,1.55
2023-04-24T06:07:47.208Z,1.55
2023-04-24T06:10:14.064Z,4.60
2023-04-24T06:12:40.977Z,1.27
2023-04-24T06:15:08.358Z,1.75
2023-04-24T06:17:35.228Z,1.33
2023-04-24T06:20:02.150Z,1.95
2023-04-24T06:22:29.167Z,1.20
2023-04-24T06:24:55.875Z,0.95
2023-04-24T06:27:22.656Z,1.63
2023-04-24T06:29:55.294Z,0.57
2023-04-24T06:32:26.009Z,0.93
2023-04-24T06:34:53.928Z,3.53
2023-04-24T06:37:21.783Z,0.93
2023-04-24T06:39:48.688Z,2.03
2023-04-24T06:42:15.798Z,2.85
2023-04-24T06:44:42.688Z,1.15
2023-04-24T06:47:14.591Z,1.52
2023-04-24T06:49:41.745Z,1.67
2023-04-24T06:52:08.780Z,2.65
2023-04-24T06:54:37.596Z,1.27
2023-04-24T06:57:05.158Z,2.78
2023-04-24T06:59:32.004Z,0.75
2023-04-24T07:01:59.111Z,0.85
2023-04-24T07:04:26.699Z,0.35
2023-04-24T07:06:57.002Z,1.50
2023-04-24T07:09:46.555Z,0.00
2023-04-24T07:12:15.309Z,0.20
2023-04-24T07:14:42.146Z,0.52
2023-04-24T07:17:08.950Z,0.15
2023-04-24T07:19:56.011Z,1.35
2023-04-24T07:22:23.658Z,0.13
2023-04-24T07:24:50.480Z,1.17
2023-04-24T07:27:17.407Z,1.23
2023-04-24T07:29:44.631Z,0.30
2023-04-24T07:32:12.353Z,2.50
2023-04-24T07:34:39.279Z,0.20
2023-04-24T07:37:06.205Z,1.00
2023-04-24T07:39:33.300Z,0.85
2023-04-24T07:42:00.385Z,0.00
2023-04-24T07:44:27.408Z,0.10
2023-04-24T07:46:55.055Z,0.20
2023-04-24T07:49:22.221Z,0.70
2023-04-24T07:51:50.876Z,0.60
2023-04-24T07:54:18.126Z,0.10
2023-04-24T07:56:45.398Z,0.00
2023-04-24T07:59:12.471Z,0.00
2023-04-24T08:01:39.687Z,0.05
2023-04-24T08:04:07.929Z,1.58
2023-04-24T08:06:34.967Z,0.10
2023-04-24T08:09:01.909Z,0.00
2023-04-24T08:11:28.886Z,0.10
2023-04-24T08:13:56.119Z,0.00
2023-04-24T08:16:27.514Z,0.10
2023-04-24T08:18:54.677Z,0.10
2023-04-24T08:21:22.008Z,1.00
2023-04-24T08:23:48.808Z,0.25
2023-04-24T08:26:15.732Z,0.20
2023-04-24T08:28:43.304Z,0.20
2023-04-24T08:31:10.339Z,0.10
2023-04-24T08:33:37.220Z,0.00
2023-04-24T08:36:05.740Z,0.20
2023-04-24T08:38:32.696Z,0.00
2023-04-24T08:41:01.550Z,0.38
2023-04-24T08:43:29.203Z,0.10
2023-04-24T08:45:58.381Z,0.10
2023-04-24T08:48:31.725Z,0.10
2023-04-24T08:51:00.173Z,1.40
2023-04-24T08:53:27.911Z,0.10
2023-04-24T08:55:58.629Z,1.10
2023-04-24T08:58:29.451Z,0.17
2023-04-24T09:00:57.591Z,4.03
2023-04-24T09:03:24.860Z,0.38
2023-04-24T09:05:53.563Z,0.00
2023-04-24T09:08:21.007Z,0.80
2023-04-24T09:10:49.895Z,2.13
2023-04-24T09:13:19.848Z,1.55
2023-04-24T09:15:46.869Z,1.60
2023-04-24T09:18:13.853Z,0.08
2023-04-24T09:21:13.227Z,0.10
2023-04-24T09:23:40.227Z,0.30
2023-04-24T09:26:07.126Z,0.47
2023-04-24T09:28:37.381Z,0.17
2023-04-24T09:31:14.861Z,0.10
2023-04-24T09:33:54.170Z,1.00
2023-04-24T09:36:28.000Z,0.00
2023-04-24T09:38:59.822Z,0.70
2023-04-24T09:41:27.387Z,0.20
2023-04-24T09:43:57.951Z,0.10
2023-04-24T09:46:37.434Z,0.70
2023-04-24T09:49:14.616Z,0.20
2023-04-24T09:51:41.756Z,0.60
2023-04-24T09:54:22.433Z,0.63
2023-04-24T09:56:51.620Z,0.53
2023-04-24T09:59:20.620Z,0.82
2023-04-24T10:01:49.756Z,1.33
2023-04-24T10:04:22.038Z,1.70
2023-04-24T10:06:50.267Z,0.20
2023-04-24T10:09:22.197Z,0.60
2023-04-24T10:11:51.034Z,0.90
2023-04-24T10:14:24.774Z,0.35
2023-04-24T10:16:59.130Z,0.63
2023-04-24T10:19:27.479Z,1.25
2023-04-24T10:21:56.893Z,0.93
2023-04-24T10:24:23.770Z,0.50
2023-04-24T10:26:51.565Z,3.47
2023-04-24T10:29:20.095Z,1.65
2023-04-24T10:31:48.334Z,0.68
2023-04-24T10:34:17.982Z,1.08
2023-04-24T10:36:50.165Z,0.80
2023-04-24T10:39:18.100Z,1.63
2023-04-24T10:41:45.792Z,0.60
2023-04-24T10:44:15.165Z,0.93
2023-04-24T10:46:49.254Z,0.95
2023-04-24T10:49:16.310Z,0.60
2023-04-24T10:51:51.858Z,2.05
2023-04-24T10:54:30.354Z,1.48
2023-04-24T10:57:31.943Z,4.75
2023-04-24T11:00:21.369Z,1.17
2023-04-24T11:02:51.305Z,2.15
2023-04-24T11:05:19.799Z,0.68
2023-04-24T11:08:15.752Z,0.43
2023-04-24T11:10:55.684Z,0.55
2023-04-24T11:13:23.500Z,1.08
2023-04-24T11:16:27.310Z,1.63
2023-04-24T11:19:07.435Z,0.40
2023-04-24T11:21:46.101Z,0.63
2023-04-24T11:24:50.107Z,1.02
2023-04-24T11:27:20.762Z,0.20
2023-04-24T11:29:49.559Z,0.57
2023-04-24T11:32:46.486Z,1.92
2023-04-24T11:35:19.208Z,1.00
2023-04-24T11:38:13.015Z,0.65
2023-04-24T11:40:41.593Z,0.47
2023-04-24T11:43:10.298Z,0.20
2023-04-24T11:45:38.473Z,0.13
2023-04-24T11:48:05.346Z,0.28
2023-04-24T11:50:32.404Z,0.68
2023-04-24T11:53:01.292Z,0.20
2023-04-24T11:55:29.490Z,0.82
2023-04-24T11:57:58.578Z,1.75
2023-04-24T12:00:31.218Z,0.75
2023-04-24T12:03:11.271Z,4.18
2023-04-24T12:05:40.100Z,0.43
2023-04-24T12:08:07.374Z,0.22
2023-04-24T12:10:35.816Z,1.67
2023-04-24T12:13:04.013Z,0.30
2023-04-24T12:15:31.208Z,3.00
2023-04-24T12:17:58.594Z,0.40
2023-04-24T12:20:31.373Z,0.50
2023-04-24T12:23:00.006Z,0.10
2023-04-24T12:25:36.746Z,0.68
2023-04-24T12:28:06.728Z,2.05
2023-04-24T12:30:36.495Z,0.25
2023-04-24T12:33:12.486Z,1.35
2023-04-24T12:35:42.152Z,1.33
2023-04-24T12:38:19.180Z,1.70
2023-04-24T12:40:46.156Z,0.47
2023-04-24T12:43:20.496Z,1.38
2023-04-24T12:45:49.357Z,1.92
2023-04-24T12:48:16.407Z,0.38
2023-04-24T12:50:46.037Z,1.58
2023-04-24T12:53:16.661Z,1.30
2023-04-24T12:55:47.918Z,1.00
2023-04-24T12:58:14.624Z,0.40
2023-04-24T13:00:44.470Z,0.38
2023-04-24T13:03:11.752Z,5.47
2023-04-24T13:05:38.825Z,2.15
2023-04-24T13:08:05.667Z,3.28
2023-04-24T13:10:32.559Z,1.58
2023-04-24T13:13:00.708Z,0.70
2023-04-24T13:15:27.503Z,3.20
2023-04-24T13:17:54.491Z,12.13
2023-04-24T13:20:21.366Z,7.47
2023-04-24T13:22:48.250Z,5.25
2023-04-24T13:25:17.898Z,4.57
2023-04-24T13:27:44.725Z,0.90
2023-04-24T13:30:12.986Z,1.45
2023-04-24T13:32:39.907Z,1.20
2023-04-24T13:35:08.309Z,2.28
2023-04-24T13:37:35.141Z,1.73
2023-04-24T13:40:02.023Z,2.20
2023-04-24T13:42:28.909Z,2.92
2023-04-24T13:44:55.935Z,1.45
2023-04-24T13:47:22.826Z,0.75
2023-04-24T13:49:49.839Z,2.25
2023-04-24T13:52:16.666Z,2.30
2023-04-24T13:54:43.434Z,0.60
2023-04-24T13:57:10.305Z,0.60
2023-04-24T13:59:38.081Z,1.58
2023-04-24T14:02:04.911Z,3.00
2023-04-24T14:04:31.920Z,1.38
2023-04-24T14:06:58.793Z,1.33
2023-04-24T14:09:25.541Z,2.38
2023-04-24T14:11:53.238Z,1.25
2023-04-24T14:14:19.974Z,1.38
2023-04-24T14:16:47.002Z,0.93
2023-04-24T14:19:13.794Z,1.83
2023-04-24T14:21:41.123Z,2.25
2023-04-24T14:24:07.915Z,7.38
2023-04-24T14:26:36.992Z,0.85
2023-04-24T14:29:14.068Z,1.67
2023-04-24T14:31:42.208Z,2.05
2023-04-24T14:34:09.213Z,1.48
2023-04-24T14:36:36.223Z,3.60
2023-04-24T14:39:07.293Z,3.28
2023-04-24T14:41:37.023Z,4.28
2023-04-24T14:44:04.747Z,2.25
2023-04-24T14:46:32.327Z,7.38
2023-04-24T14:48:59.498Z,8.60
2023-04-24T14:51:26.646Z,7.43
2023-04-24T14:53:53.793Z,10.70
2023-04-24T14:56:20.824Z,7.10
2023-04-24T14:58:47.733Z,3.15
2023-04-24T15:01:14.703Z,6.95
2023-04-24T15:03:42.339Z,3.70
2023-04-24T15:06:09.398Z,3.58
2023-04-24T15:11:17.036Z,6.93
2023-04-24T15:13:46.406Z,4.47
2023-04-24T15:16:13.567Z,2.47
2023-04-24T15:18:40.409Z,4.28
2023-04-24T15:21:07.133Z,4.55
2023-04-24T15:23:34.090Z,3.72
2023-04-24T15:26:02.206Z,4.47
2023-04-24T15:28:29.080Z,2.97
2023-04-24T15:30:55.873Z,3.05
2023-04-24T15:33:22.758Z,2.72
2023-04-24T15:35:49.879Z,2.55
2023-04-24T15:38:16.897Z,5.05
2023-04-24T15:40:43.828Z,3.25
2023-04-24T15:43:11.831Z,2.28
2023-04-24T15:45:38.842Z,4.60
2023-04-24T15:48:06.269Z,3.97
2023-04-24T15:50:33.271Z,3.65
2023-04-24T15:53:00.193Z,2.67
2023-04-24T15:55:28.667Z,5.55
2023-04-24T15:57:55.679Z,2.58
2023-04-24T16:00:22.534Z,4.70
2023-04-24T16:02:51.532Z,3.10
2023-04-24T16:05:20.233Z,2.30
2023-04-24T16:07:47.081Z,6.95
2023-04-24T16:10:13.968Z,8.48
2023-04-24T16:12:40.935Z,9.98
2023-04-24T16:15:08.180Z,7.60
2023-04-24T16:17:35.117Z,4.78
2023-04-24T16:20:02.319Z,7.13
2023-04-24T16:22:29.265Z,5.15
2023-04-24T16:24:56.853Z,7.30
2023-04-24T16:28:10.368Z,4.75
2023-04-24T16:30:37.214Z,7.93
2023-04-24T16:33:07.448Z,4.55
2023-04-24T16:35:34.517Z,3.20
2023-04-24T16:38:02.484Z,4.63
2023-04-24T16:40:29.386Z,3.50
2023-04-24T16:42:56.350Z,5.32
2023-04-24T16:45:23.261Z,4.95
2023-04-24T16:47:50.288Z,5.07
2023-04-24T16:50:17.304Z,4.20
2023-04-24T16:52:44.286Z,4.07
2023-04-24T16:55:11.120Z,4.40
2023-04-24T16:57:38.042Z,3.40
2023-04-24T17:00:05.602Z,2.55
2023-04-24T17:02:32.516Z,3.25
2023-04-24T17:04:59.574Z,2.15
2023-04-24T17:07:26.876Z,1.35
2023-04-24T17:09:53.854Z,2.00
2023-04-24T17:12:20.676Z,2.22
2023-04-24T17:14:47.547Z,1.10
2023-04-24T17:17:15.052Z,1.60
2023-04-24T17:19:41.849Z,3.13
2023-04-24T17:22:08.903Z,1.90
2023-04-24T17:24:35.920Z,1.73
2023-04-24T17:27:13.844Z,6.22
2023-04-24T17:29:42.295Z,10.10
2023-04-24T17:32:09.290Z,6.93
2023-04-24T17:34:36.565Z,6.72
2023-04-24T17:37:04.802Z,6.65
2023-04-24T17:39:31.648Z,8.23
2023-04-24T17:41:58.503Z,6.10
2023-04-24T17:44:25.342Z,9.48
2023-04-24T17:46:52.284Z,8.43
2023-04-24T17:49:19.088Z,6.78
2023-04-24T17:51:45.921Z,6.93
2023-04-24T17:54:12.704Z,11.98
2023-04-24T17:56:39.768Z,9.27
2023-04-24T17:59:06.594Z,6.57
2023-04-24T18:01:33.487Z,5.95
2023-04-24T18:04:00.885Z,6.30
2023-04-24T18:06:28.598Z,7.88
2023-04-24T18:08:56.013Z,7.78
2023-04-24T18:11:22.890Z,5.90
2023-04-24T18:13:50.690Z,5.07
2023-04-24T18:16:17.721Z,7.03
2023-04-24T18:18:44.551Z,6.47
2023-04-24T18:21:11.451Z,6.55
2023-04-24T18:23:38.453Z,6.13
2023-04-24T18:26:05.503Z,7.38
2023-04-24T18:28:34.742Z,7.05
2023-04-24T18:31:02.411Z,6.97
2023-04-24T18:33:29.276Z,7.57
2023-04-24T18:35:58.351Z,6.13
2023-04-24T18:38:26.056Z,6.38
2023-04-24T18:40:52.916Z,5.40
2023-04-24T18:43:19.800Z,9.07
2023-04-24T18:45:47.396Z,6.93
2023-04-24T18:48:14.251Z,8.45
2023-04-24T18:50:41.190Z,10.07
2023-04-24T18:53:14.684Z,6.20
2023-04-24T18:55:41.508Z,7.53
2023-04-24T18:58:08.345Z,6.55
2023-04-24T19:00:35.457Z,5.85
2023-04-24T19:03:02.880Z,6.78
2023-04-24T19:05:29.850Z,7.47
2023-04-24T19:07:56.767Z,9.20
2023-04-24T19:10:23.623Z,5.85
2023-04-24T19:12:56.317Z,6.20
2023-04-24T19:15:24.502Z,7.10
2023-04-24T19:17:51.912Z,7.93
2023-04-24T19:20:22.132Z,7.68
2023-04-24T19:22:49.296Z,6.43
2023-04-24T19:25:16.407Z,5.00
2023-04-24T19:27:43.439Z,9.55
2023-04-24T19:30:10.623Z,5.43
2023-04-24T19:32:40.061Z,7.85
2023-04-24T19:35:13.067Z,7.90
2023-04-24T19:38:04.693Z,7.47
2023-04-24T19:40:37.520Z,7.57
2023-04-24T19:43:05.080Z,8.65
2023-04-24T19:45:32.059Z,5.38
2023-04-24T19:48:01.742Z,5.28
2023-04-24T19:50:28.739Z,4.57
2023-04-24T19:52:55.615Z,4.82
2023-04-24T19:55:22.586Z,4.40
2023-04-24T19:57:49.670Z,6.45
2023-04-24T20:00:16.872Z,3.20
2023-04-24T20:02:43.951Z,8.77
2023-04-24T20:05:11.776Z,5.20
2023-04-24T20:07:38.719Z,4.28
2023-04-24T20:10:06.436Z,2.33
2023-04-24T20:12:34.584Z,2.67
2023-04-24T20:15:02.464Z,3.88
2023-04-24T20:17:29.579Z,1.92
2023-04-24T20:19:56.402Z,2.42
2023-04-24T20:22:23.269Z,3.33
2023-04-24T20:24:50.571Z,4.03
2023-04-24T20:27:17.811Z,3.42
2023-04-24T20:29:44.721Z,4.05
2023-04-24T20:32:11.665Z,5.15
2023-04-24T20:34:38.524Z,5.15
2023-04-24T20:37:06.301Z,4.43
2023-04-24T20:39:33.166Z,4.82
2023-04-24T20:42:02.444Z,4.25
2023-04-24T20:44:29.679Z,3.92
2023-04-24T20:46:56.637Z,4.25
2023-04-24T20:49:23.581Z,6.40
2023-04-24T20:51:50.398Z,7.30
2023-04-24T20:54:17.315Z,10.30
2023-04-24T20:56:44.192Z,5.18
2023-04-24T20:59:11.156Z,4.28
2023-04-24T21:01:38.393Z,4.75
2023-04-24T21:04:05.522Z,5.28
2023-04-24T21:06:32.557Z,6.47
2023-04-24T21:08:59.505Z,7.97
2023-04-24T21:11:26.412Z,3.85
2023-04-24T21:13:53.239Z,5.85
2023-04-24T21:16:20.910Z,6.15
2023-04-24T21:18:47.735Z,4.00
2023-04-24T21:21:14.798Z,2.85
2023-04-24T21:23:41.604Z,6.13
2023-04-24T21:26:08.547Z,5.97
2023-04-24T21:28:36.477Z,7.30
2023-04-24T21:31:03.688Z,6.05
2023-04-24T21:33:30.493Z,6.07
2023-04-24T21:35:57.357Z,6.97
2023-04-24T21:38:25.268Z,6.72
2023-04-24T21:40:52.604Z,5.68
2023-04-24T21:43:25.333Z,6.22
2023-04-24T21:45:57.688Z,6.43
2023-04-24T21:48:24.738Z,6.80
2023-04-24T21:50:51.561Z,6.10
2023-04-24T21:53:18.632Z,6.07
2023-04-24T21:55:45.896Z,5.72
2023-04-24T21:58:12.925Z,7.05
2023-04-24T22:00:39.777Z,5.53
2023-04-24T22:03:06.715Z,7.22
2023-04-24T22:05:33.545Z,8.43
2023-04-24T22:08:00.464Z,7.05
2023-04-24T22:10:27.341Z,7.45
2023-04-24T22:12:54.740Z,5.90
2023-04-24T22:15:21.590Z,5.45
2023-04-24T22:17:49.830Z,6.20
2023-04-24T22:20:20.185Z,5.57
2023-04-24T22:22:47.734Z,5.22
2023-04-24T22:25:15.587Z,5.90
2023-04-24T22:27:42.386Z,4.18
2023-04-24T22:30:10.113Z,5.38
2023-04-24T22:32:37.355Z,5.82
2023-04-24T22:35:04.599Z,5.72
2023-04-24T22:37:31.484Z,4.45
2023-04-24T22:40:00.034Z,6.82
2023-04-24T22:42:27.870Z,6.70
2023-04-24T22:44:54.666Z,5.60
2023-04-24T22:47:21.604Z,5.72
2023-04-24T22:49:48.491Z,6.72
2023-04-24T22:52:15.659Z,7.07
2023-04-24T22:54:42.466Z,5.45
2023-04-24T22:57:09.375Z,4.32
2023-04-24T22:59:36.245Z,4.55
2023-04-24T23:02:03.008Z,1.88
2023-04-24T23:04:29.966Z,5.18
2023-04-24T23:06:56.795Z,1.33
2023-04-24T23:09:23.676Z,1.77
2023-04-24T23:11:50.838Z,2.60
2023-04-24T23:14:17.677Z,3.03
2023-04-24T23:16:46.136Z,3.25
2023-04-24T23:19:13.005Z,3.97
2023-04-24T23:21:39.860Z,4.97
2023-04-24T23:24:06.737Z,2.67
2023-04-24T23:26:33.519Z,2.75
2023-04-24T23:29:00.552Z,4.68
2023-04-24T23:31:27.348Z,3.65
2023-04-24T23:33:54.116Z,3.35
2023-04-24T23:36:21.356Z,4.53
2023-04-24T23:38:50.492Z,5.68
2023-04-24T23:41:19.405Z,5.05
2023-04-24T23:43:46.209Z,3.40
2023-04-24T23:46:13.297Z,4.90
2023-04-24T23:48:40.182Z,4.40
2023-04-24T23:51:07.300Z,3.47
2023-04-24T23:53:34.195Z,3.92
2023-04-24T23:56:01.092Z,3.17
2023-04-24T23:58:27.993Z,3.22
